Lakehurst, NJ

2:23 AM EDT on August 22, 2014 (GMT -0400)
Lake Shore | Change Station
CLOSE
Current Station
Personal Weather Station
Location: Lakehurst, NJ
Elevation: 82 ft
Nearby Weather Stations

Elev 82 ft 40.01 °N, 74.32 °W | Updated 5 minutes ago

Overcast
Overcast
66.0 °F
Feels Like 66.0 °F
N
2.7
Wind Variable Wind from North

Today
High -- | Low -- °F
--% Chance of Precip.
Yesterday
High -- | Low -- °F
Precip. -- in
6:15 AM 7:44 PM
Waning Crescent, 10% visible
Pressure 30.01 in
Visibility 10.0 miles
Clouds Few 1600 ft
Overcast 2200 ft
Dew Point 66 °F
Humidity 99%
Rainfall 1.19 in
Snow Depth Not available.
UV 0 out of 12
Pollen 8.80 out of 12
Ozone Good
PM2.5 Good
Flu Activity Not available.
METAR KMJX 220555Z AUTO 02014G18KT 10SM VCTS FEW016 OVC022 21/19 A3001 RMK AO1 LTG DSNT W TSB07E22B27 P0003 60003 10220 20190 57003

More Conditions Fewer Conditions

Pressure 30.01 in
Visibility 10.0 miles
Clouds Few 1600 ft
Overcast 2200 ft
Dew Point 66 °F
Humidity 99%
Rainfall 1.19 in
Snow Depth Not available.
UV 0 out of 12
Pollen 8.80 out of 12
Ozone Good
PM2.5 Good
Flu Activity Not available.
METAR KMJX 220555Z AUTO 02014G18KT 10SM VCTS FEW016 OVC022 21/19 A3001 RMK AO1 LTG DSNT W TSB07E22B27 P0003 60003 10220 20190 57003

More Conditions Fewer Conditions

Nowcast | as of 12:21 am EDT on August 22, 2014

A broad area of showers and thunderstorms continues to slide east across northern and central New Jersey as well as the Poconos in Pennsylvania. Occasional lightning and heavy rain with rain rates of up to one inch per hour are possible with the strongest of these storms. These storms are expected to continue through the early morning hours.

×

10-Day Weather Forecast

Almanac

Astronomy

Aug. 22, 2014 Rise Set
Actual Time 6:15 AM EDT 7:44 PM EDT
Civil Twilight 5:47 AM EDT 8:12 PM EDT
Nautical Twilight 5:12 AM EDT 8:46 PM EDT
Astronomical Twilight 4:36 AM EDT 9:22 PM EDT
Moon 3:35 AM EDT 5:50 PM EDT
Length of Visible Light 14h 25m
Length of Day
13h 28m
Tomorrow will be 2m 25s shorter.
Waning Crescent, 10% of the Moon is Illuminated
Today
Waning Crescent
Aug 25
New
Sep 2
First Quarter
Sep 8
Full
Sep 15
Last Quarter

Today's Extremes

State Highs State Lows

Community

WunderPhotos

Upload Photos

1,746,131 photos uploaded!

Nearby

Air Quality

  Air Quality AQ Index Pollutant
Yesterday Moderate
PM2.5
Yesterday Good
OZONE
Current Good
PM2.5
Current Good
OZONE
Friday Moderate
PM2.5
Friday Good
OZONE
Saturday Good
PM2.5
Saturday Good
OZONE
Sunday Good
OZONE
Sunday Good
PM2.5

Snow Depth

Station Depth Elevation
No new snow has been reported.

Earthquake Activity

City Distance Mag. Time & Date
No recent earthquake activity has been reported nearby.
Minimum magnitude displayed is 2.5.

Coastal Water Temperatures

Place Temperature
Atlantic City, NJ 77.0 °F

Nearby Weather Stations